Aviation Digital Data Service (ADDS)

Output produced by METARs form (0003 UTC 30 July 2015)
found at http://aviationweather.gov/adds/metars/
 
KPOU 292338Z 3000/3024 26004KT P6SM SKC 
     FM300200 00000KT P6SM SKC 
     FM300800 18003KT 5SM BR SCT006 BKN015 BKN250 
     FM301400 21006KT P6SM SCT015 BKN040 
     FM301800 23007KT P6SM VCSH BKN040 BKN150 
     PROB30 3019/3023 3SM -TSRA BR BKN030CB